Time;durP1;ratioP1;P1;durP2;ratioP2;P2;SDS_P1;SDS_P2;PMS_P1;PMS_P2;Temp;Humidity;BMP_temperature;BMP_pressure;BME280_temperature;BME280_humidity;BME280_pressure;Samples;Min_cycle;Max_cycle;Signal;HPM_P1;HPM_P2
2023/03/24 00:00:13;;;;;;;;;;;;;;;18.32;56.67;99744.72;2038283;29;19926;-57
2023/03/24 00:01:15;;;;;;;;;;;;;;;18.32;56.53;99735.72;2026252;29;20014;-57
2023/03/24 00:02:18;;;;;;;;;;;;;;;18.31;56.40;99745.91;2025344;29;19929;-56
2023/03/24 00:03:20;;;;;;;;;;;;;;;18.31;56.50;99743.19;2018418;29;19931;-58
2023/03/24 00:04:24;;;;;;;;;;;;;;;18.31;56.62;99739.66;2019934;29;20022;-57
2023/03/24 00:05:27;;;;;;;;;;;;;;;18.31;56.54;99734.19;2030113;29;20185;-58
2023/03/24 00:06:33;;;;;;;;;;;;;;;18.30;56.64;99736.16;2039834;29;20315;-55
2023/03/24 00:07:37;;;;;;;;;;;;;;;18.30;56.51;99738.88;2039481;29;19926;-57
2023/03/24 00:08:42;;;;;;;;;;;;;;;18.31;56.69;99734.97;2038899;29;19993;-57
2023/03/24 00:09:44;;;;;;;;;;;;;;;18.30;56.47;99719.75;2036420;29;19966;-57
2023/03/24 00:10:48;;;;;;;;;;;;;;;18.30;56.54;99730.69;2034657;29;19933;-58
2023/03/24 00:11:49;;;;;;;;;;;;;;;18.31;56.61;99726.78;2035369;29;19934;-57
2023/03/24 00:12:52;;;;;;;;;;;;;;;18.30;56.71;99722.50;2039708;29;19973;-57
2023/03/24 00:13:57;;;;;;;;;;;;;;;18.30;56.50;99727.94;2038525;29;19926;-57
2023/03/24 00:15:01;;;;;;;;;;;;;;;18.30;56.66;99722.50;2038973;29;19973;-58
2023/03/24 00:16:05;;;;;;;;;;;;;;;18.29;56.78;99723.69;2037184;29;19929;-57
2023/03/24 00:17:08;;;;;;;;;;;;;;;18.30;56.60;99719.75;2038625;29;19930;-56
2023/03/24 00:18:10;;;;;;;;;;;;;;;18.29;56.53;99712.75;2039560;29;19926;-58
2023/03/24 00:19:13;;;;;;;;;;;;;;;18.29;56.54;99710.03;2033650;29;19923;-57
2023/03/24 00:20:16;;;;;;;;;;;;;;;18.29;56.70;99715.50;2034426;29;19950;-57
2023/03/24 00:21:22;;;;;;;;;;;;;;;18.29;56.71;99709.25;2032621;29;20022;-56
2023/03/24 00:22:27;;;;;;;;;;;;;;;18.29;56.73;99707.28;2031151;29;20298;-57
2023/03/24 00:23:31;;;;;;;;;;;;;;;18.29;56.55;99704.56;2030260;29;19974;-58
2023/03/24 00:24:33;;;;;;;;;;;;;;;18.29;56.58;99699.09;2034999;29;19927;-57
2023/03/24 00:25:36;;;;;;;;;;;;;;;18.29;56.76;99698.31;2039608;29;20348;-57
2023/03/24 00:26:38;;;;;;;;;;;;;;;18.29;56.59;99704.56;2029096;29;19927;-58
2023/03/24 00:27:43;;;;;;;;;;;;;;;18.29;56.75;99701.03;2030876;29;19927;-56
2023/03/24 00:28:47;;;;;;;;;;;;;;;18.28;56.64;99680.38;2030490;29;20025;-58
2023/03/24 00:29:49;;;;;;;;;;;;;;;18.29;56.55;99692.84;2027949;29;19934;-58
2023/03/24 00:30:51;;;;;;;;;;;;;;;18.28;56.78;99686.63;2034780;29;19970;-58
2023/03/24 00:31:56;;;;;;;;;;;;;;;18.28;56.57;99678.44;2036491;29;19927;-56
2023/03/24 00:33:00;;;;;;;;;;;;;;;18.27;56.74;99676.88;2034395;29;19927;-56
2023/03/24 00:34:05;;;;;;;;;;;;;;;18.28;56.65;99681.16;2036997;29;19930;-58
2023/03/24 00:35:11;;;;;;;;;;;;;;;18.28;56.73;99672.97;2033711;29;20006;-57
2023/03/24 00:36:15;;;;;;;;;;;;;;;18.27;56.64;99676.88;2039341;29;19927;-57
2023/03/24 00:37:17;;;;;;;;;;;;;;;18.27;56.75;99667.91;2039020;29;19938;-58
2023/03/24 00:38:20;;;;;;;;;;;;;;;18.26;56.59;99667.16;2038603;29;19927;-57
2023/03/24 00:39:22;;;;;;;;;;;;;;;18.27;56.61;99670.63;2038656;29;19927;-58
2023/03/24 00:40:26;;;;;;;;;;;;;;;18.27;56.63;99660.47;2037148;29;19989;-58
2023/03/24 00:41:29;;;;;;;;;;;;;;;18.27;56.87;99663.22;2039356;29;20033;-58
2023/03/24 00:42:32;;;;;;;;;;;;;;;18.27;56.60;99665.94;2032144;29;19931;-58
2023/03/24 00:43:34;;;;;;;;;;;;;;;18.26;56.71;99660.91;2031092;29;20005;-57
2023/03/24 00:44:37;;;;;;;;;;;;;;;18.27;56.56;99648.78;2035748;29;20005;-57
2023/03/24 00:45:45;;;;;;;;;;;;;;;18.27;56.73;99652.28;2033588;29;19983;-58
2023/03/24 00:46:54;;;;;;;;;;;;;;;18.26;56.60;99648.03;2036468;29;19978;-58
2023/03/24 00:47:58;;;;;;;;;;;;;;;18.26;56.74;99644.50;2036707;29;19986;-58
2023/03/24 00:49:02;;;;;;;;;;;;;;;18.25;56.76;99643.72;2037673;29;19934;-57
2023/03/24 00:50:05;;;;;;;;;;;;;;;18.26;56.59;99644.50;2039943;29;19993;-57
2023/03/24 00:51:09;;;;;;;;;;;;;;;18.26;56.76;99641.78;2036819;29;19931;-58
2023/03/24 00:52:12;;;;;;;;;;;;;;;18.26;56.64;99642.56;2034004;29;20021;-59
2023/03/24 00:53:15;;;;;;;;;;;;;;;18.25;56.78;99638.25;2038686;29;19927;-58
2023/03/24 00:54:20;;;;;;;;;;;;;;;18.26;56.90;99642.56;2038095;29;19954;-57
2023/03/24 00:55:27;;;;;;;;;;;;;;;18.25;56.62;99635.53;2038398;29;19977;-58
2023/03/24 00:56:30;;;;;;;;;;;;;;;18.26;56.65;99630.84;2039818;29;20069;-58
2023/03/24 00:57:33;;;;;;;;;;;;;;;18.25;56.67;99632.81;2037955;29;19973;-57
2023/03/24 00:58:35;;;;;;;;;;;;;;;18.25;56.77;99632.81;2039412;29;19926;-55
2023/03/24 00:59:41;;;;;;;;;;;;;;;18.25;56.79;99619.13;2039492;29;19937;-58
2023/03/24 01:00:43;;;;;;;;;;;;;;;18.26;56.77;99611.72;2039449;29;19923;-58
2023/03/24 01:01:46;;;;;;;;;;;;;;;18.26;56.66;99609.78;2037750;29;19949;-58
2023/03/24 01:02:52;;;;;;;;;;;;;;;18.25;56.65;99613.69;2032264;29;19991;-57
2023/03/24 01:03:56;;;;;;;;;;;;;;;18.25;56.63;99608.22;2027440;29;19934;-57
2023/03/24 01:05:00;;;;;;;;;;;;;;;18.25;56.53;99602.00;2030504;29;19935;-55
2023/03/24 01:06:03;;;;;;;;;;;;;;;18.24;56.59;99592.25;2032340;29;20373;-58
2023/03/24 01:07:06;;;;;;;;;;;;;;;18.24;56.61;99595.75;2038977;29;19923;-58
2023/03/24 01:08:09;;;;;;;;;;;;;;;18.23;56.79;99591.50;2028443;29;20384;-58
2023/03/24 01:09:11;;;;;;;;;;;;;;;18.24;56.70;99598.47;2029592;29;19923;-58
2023/03/24 01:10:14;;;;;;;;;;;;;;;18.25;56.82;99596.53;2036081;29;19934;-58
2023/03/24 01:11:16;;;;;;;;;;;;;;;18.24;56.62;99601.22;2033171;29;20022;-58
2023/03/24 01:12:20;;;;;;;;;;;;;;;18.24;56.89;99587.56;2038812;29;19939;-57
2023/03/24 01:13:23;;;;;;;;;;;;;;;18.24;56.95;99592.25;2038821;29;20298;-57
2023/03/24 01:14:26;;;;;;;;;;;;;;;18.24;56.72;99587.56;2031356;29;19927;-57
2023/03/24 01:15:33;;;;;;;;;;;;;;;18.24;56.64;99575.84;2039213;29;19927;-58
2023/03/24 01:16:39;;;;;;;;;;;;;;;18.23;56.64;99583.28;2030814;29;19934;-58
2023/03/24 01:17:41;;;;;;;;;;;;;;;18.23;56.60;99579.78;2019597;29;20003;-58
2023/03/24 01:18:44;;;;;;;;;;;;;;;18.23;56.82;99575.09;2026430;29;20389;-57
2023/03/24 01:19:47;;;;;;;;;;;;;;;18.23;56.63;99566.91;2034649;29;19962;-58
2023/03/24 01:20:50;;;;;;;;;;;;;;;18.23;56.59;99564.16;2035156;29;22100;-58
2023/03/24 01:21:53;;;;;;;;;;;;;;;18.22;56.66;99568.06;2033329;29;19975;-58
2023/03/24 01:22:55;;;;;;;;;;;;;;;18.23;56.75;99563.38;2040527;29;19977;-58
2023/03/24 01:23:57;;;;;;;;;;;;;;;18.23;56.62;99568.84;2034983;29;19965;-58
2023/03/24 01:25:00;;;;;;;;;;;;;;;18.23;56.63;99563.38;2037072;29;19982;-56
2023/03/24 01:26:04;;;;;;;;;;;;;;;18.24;56.57;99573.13;2035213;29;19958;-57
2023/03/24 01:27:07;;;;;;;;;;;;;;;18.23;56.93;99564.16;2036359;29;20404;-57
2023/03/24 01:28:09;;;;;;;;;;;;;;;18.21;56.66;99558.34;2038859;29;20468;-58
2023/03/24 01:29:12;;;;;;;;;;;;;;;18.22;56.78;99557.16;2034590;29;19981;-59
2023/03/24 01:30:14;;;;;;;;;;;;;;;18.22;56.82;99554.41;2040004;29;20006;-57
2023/03/24 01:31:17;;;;;;;;;;;;;;;18.22;56.68;99546.22;2031284;29;20026;-58
2023/03/24 01:32:19;;;;;;;;;;;;;;;18.22;56.89;99537.28;2031274;29;19926;-57
2023/03/24 01:33:22;;;;;;;;;;;;;;;18.21;56.64;99544.69;2039041;29;20347;-58
2023/03/24 01:34:24;;;;;;;;;;;;;;;18.22;56.85;99556.41;2028920;29;19927;-57
2023/03/24 01:35:28;;;;;;;;;;;;;;;18.21;56.83;99544.69;2029091;29;20464;-58
2023/03/24 01:36:30;;;;;;;;;;;;;;;18.21;57.03;99543.91;2038419;29;19926;-58
2023/03/24 01:37:33;;;;;;;;;;;;;;;18.22;56.83;99540.00;2040791;29;20484;-58
2023/03/24 01:38:35;;;;;;;;;;;;;;;18.21;56.73;99535.72;2037042;29;20680;-58
2023/03/24 01:39:38;;;;;;;;;;;;;;;18.21;56.76;99532.97;2036225;29;19927;-58
2023/03/24 01:40:41;;;;;;;;;;;;;;;18.21;56.60;99527.50;2037669;29;20008;-59
2023/03/24 01:41:45;;;;;;;;;;;;;;;18.21;56.67;99516.59;2040185;29;19930;-57
2023/03/24 01:42:47;;;;;;;;;;;;;;;18.20;56.65;99529.50;2039815;29;20423;-58
2023/03/24 01:43:49;;;;;;;;;;;;;;;18.19;56.72;99525.22;2031754;29;19934;-58
2023/03/24 01:44:53;;;;;;;;;;;;;;;18.20;56.66;99524.03;2029727;29;20409;-58
2023/03/24 01:46:13;;;;;;;;;;;;;;;18.19;56.74;99525.22;2034879;29;20518;-58
2023/03/24 01:47:16;;;;;;;;;;;;;;;18.20;56.83;99518.56;2037141;29;19926;-58
2023/03/24 01:48:20;;;;;;;;;;;;;;;18.20;57.03;99509.59;2034821;29;19977;-59
2023/03/24 01:49:24;;;;;;;;;;;;;;;18.19;56.72;99508.81;2039164;29;19923;-58
2023/03/24 01:50:28;;;;;;;;;;;;;;;18.20;56.74;99507.63;2039525;29;20392;-58
2023/03/24 01:51:34;;;;;;;;;;;;;;;18.19;56.91;99503.34;2037555;29;20415;-58
2023/03/24 01:52:36;;;;;;;;;;;;;;;18.19;56.39;99497.88;2039775;29;19927;-58
2023/03/24 01:53:40;;;;;;;;;;;;;;;18.20;56.68;99501.41;2039677;29;19930;-57
2023/03/24 01:54:45;;;;;;;;;;;;;;;18.19;56.67;99508.81;2034534;29;20002;-57
2023/03/24 01:55:48;;;;;;;;;;;;;;;18.19;56.95;99497.88;2031186;29;20396;-58
2023/03/24 01:56:59;;;;;;;;;;;;;;;18.20;56.85;99502.19;2022010;29;20018;-57
2023/03/24 01:58:02;;;;;;;;;;;;;;;18.19;56.67;99503.34;2023427;29;19974;-58
2023/03/24 01:59:19;;;;;;;;;;;;;;;18.19;56.87;99495.16;2025324;29;19928;-58
2023/03/24 02:00:41;;;;;;;;;;;;;;;18.19;56.64;99497.88;2029974;29;20419;-57
2023/03/24 02:02:17;;;;;;;;;;;;;;;18.18;56.85;99485.44;2037614;29;19982;-58
2023/03/24 02:03:35;;;;;;;;;;;;;;;18.19;56.62;99492.44;2038212;29;19930;-58
2023/03/24 02:04:40;;;;;;;;;;;;;;;18.19;56.69;99483.47;2038824;29;20598;-58
2023/03/24 02:05:45;;;;;;;;;;;;;;;18.19;56.71;99486.22;2030664;29;19958;-58
2023/03/24 02:06:49;;;;;;;;;;;;;;;18.19;56.71;99472.56;2028095;29;19950;-58
2023/03/24 02:07:56;;;;;;;;;;;;;;;18.18;56.96;99484.66;2032595;29;20383;-58
2023/03/24 02:09:00;;;;;;;;;;;;;;;18.18;56.67;99473.72;2032936;29;19969;-57
2023/03/24 02:10:05;;;;;;;;;;;;;;;18.18;56.76;99474.50;2028502;29;20049;-57
2023/03/24 02:11:08;;;;;;;;;;;;;;;18.18;56.69;99473.72;2029478;29;19981;-58
2023/03/24 02:12:21;;;;;;;;;;;;;;;18.18;56.78;99460.84;2025614;29;21082;-58
2023/03/24 02:13:25;;;;;;;;;;;;;;;18.17;56.75;99462.03;2023940;29;20403;-57
2023/03/24 02:14:26;;;;;;;;;;;;;;;18.17;56.87;99467.47;2031833;29;19994;-58
2023/03/24 02:15:31;;;;;;;;;;;;;;;18.17;56.98;99456.56;2032443;29;19927;-58
2023/03/24 02:16:44;;;;;;;;;;;;;;;18.17;56.72;99462.03;2034081;29;19926;-58
2023/03/24 02:17:56;;;;;;;;;;;;;;;18.17;56.66;99467.47;2042416;29;20392;-58
2023/03/24 02:19:11;;;;;;;;;;;;;;;18.17;56.86;99462.03;2030035;29;20010;-57
2023/03/24 02:20:28;;;;;;;;;;;;;;;18.17;56.77;99462.03;2030805;29;19949;-57
2023/03/24 02:21:50;;;;;;;;;;;;;;;18.18;56.83;99454.59;2031163;29;19978;-58
2023/03/24 02:23:13;;;;;;;;;;;;;;;18.16;56.91;99457.75;2031383;29;19934;-58
2023/03/24 02:24:36;;;;;;;;;;;;;;;18.17;56.71;99451.09;2032174;29;19937;-58
2023/03/24 02:25:53;;;;;;;;;;;;;;;18.16;56.81;99449.56;2033979;29;19935;-58
2023/03/24 02:26:59;;;;;;;;;;;;;;;18.16;56.79;99455.03;2007536;29;19971;-58
2023/03/24 02:28:11;;;;;;;;;;;;;;;18.16;56.77;99449.56;2028801;29;19932;-58
2023/03/24 02:29:37;;;;;;;;;;;;;;;18.16;56.94;99449.56;2037688;29;19946;-58
2023/03/24 02:31:00;;;;;;;;;;;;;;;18.16;56.87;99440.59;2039210;29;19927;-58
2023/03/24 02:32:13;;;;;;;;;;;;;;;18.16;57.02;99446.06;2010119;29;20018;-58
2023/03/24 02:33:30;;;;;;;;;;;;;;;18.16;56.98;99446.06;2032585;29;19926;-58
2023/03/24 02:34:48;;;;;;;;;;;;;;;18.15;56.79;99439.84;2032905;29;19966;-58
2023/03/24 02:36:06;;;;;;;;;;;;;;;18.15;56.55;99437.13;2038043;29;20017;-57
2023/03/24 02:37:26;;;;;;;;;;;;;;;18.16;56.67;99444.09;2015091;29;19982;-57
2023/03/24 02:38:47;;;;;;;;;;;;;;;18.15;56.86;99431.66;2031293;29;19930;-57
2023/03/24 02:40:06;;;;;;;;;;;;;;;18.15;56.73;99431.66;2039523;29;20320;-58
2023/03/24 02:41:13;;;;;;;;;;;;;;;18.15;57.12;99437.13;2038656;29;19933;-59
2023/03/24 02:42:26;;;;;;;;;;;;;;;18.15;56.93;99419.94;2037840;29;19923;-58
2023/03/24 02:43:36;;;;;;;;;;;;;;;18.14;56.93;99432.81;2034948;29;20404;-58
2023/03/24 02:44:41;;;;;;;;;;;;;;;18.14;56.70;99427.34;2036595;29;19933;-58
2023/03/24 02:45:48;;;;;;;;;;;;;;;18.15;56.82;99428.91;2035428;29;20028;-61
2023/03/24 02:46:53;;;;;;;;;;;;;;;18.15;56.63;99430.88;2028740;29;19935;-60
2023/03/24 02:48:04;;;;;;;;;;;;;;;18.15;57.28;99414.47;2030446;29;19934;-58
2023/03/24 02:49:11;;;;;;;;;;;;;;;18.14;57.08;99427.34;2036266;29;19941;-59
2023/03/24 02:50:15;;;;;;;;;;;;;;;18.14;56.96;99419.16;2032856;29;20093;-58
2023/03/24 02:51:24;;;;;;;;;;;;;;;18.14;56.93;99418.41;2037661;29;19965;-56
2023/03/24 02:52:31;;;;;;;;;;;;;;;18.14;56.81;99429.34;2027941;29;20397;-60
2023/03/24 02:53:38;;;;;;;;;;;;;;;18.14;56.78;99424.63;2024766;29;19927;-58
2023/03/24 02:55:00;;;;;;;;;;;;;;;18.14;56.74;99441.03;2020733;29;20432;-58
2023/03/24 02:56:07;;;;;;;;;;;;;;;18.14;57.02;99443.75;2027773;29;20536;-58
2023/03/24 02:57:12;;;;;;;;;;;;;;;18.14;57.02;99456.66;2033446;29;19955;-58
2023/03/24 02:58:37;;;;;;;;;;;;;;;18.14;56.98;99451.94;2033095;29;19927;-58
2023/03/24 02:59:40;;;;;;;;;;;;;;;18.13;56.80;99447.69;2031162;29;19927;-58
2023/03/24 03:01:06;;;;;;;;;;;;;;;18.14;56.92;99457.41;2030503;29;19934;-58
2023/03/24 03:02:11;;;;;;;;;;;;;;;18.13;56.81;99453.16;2040080;29;20443;-58
2023/03/24 03:03:19;;;;;;;;;;;;;;;18.13;56.97;99461.34;2024627;29;19935;-57
2023/03/24 03:04:25;;;;;;;;;;;;;;;18.13;57.04;99476.97;2034481;29;19923;-58
2023/03/24 03:05:33;;;;;;;;;;;;;;;18.14;57.07;99482.00;2038052;29;19926;-58
2023/03/24 03:06:39;;;;;;;;;;;;;;;18.13;56.71;99485.16;2036760;29;19927;-57
2023/03/24 03:07:43;;;;;;;;;;;;;;;18.14;57.07;99476.53;2029217;29;19930;-58
2023/03/24 03:08:46;;;;;;;;;;;;;;;18.14;56.85;99494.91;2031992;29;19927;-57
2023/03/24 03:09:53;;;;;;;;;;;;;;;18.13;57.07;99485.16;2033258;29;19927;-57
2023/03/24 03:10:57;;;;;;;;;;;;;;;18.13;56.86;99488.66;2032961;29;19927;-57
2023/03/24 03:12:02;;;;;;;;;;;;;;;18.13;56.97;99496.84;2036425;29;19927;-57
2023/03/24 03:13:06;;;;;;;;;;;;;;;18.13;57.01;99490.63;2038861;29;19958;-58
2023/03/24 03:14:10;;;;;;;;;;;;;;;18.12;56.79;99489.09;2027488;29;19982;-58
2023/03/24 03:15:15;;;;;;;;;;;;;;;18.13;57.03;99496.06;2031707;29;20006;-58
2023/03/24 03:16:21;;;;;;;;;;;;;;;18.13;56.90;99502.31;2033977;29;19923;-58
2023/03/24 03:17:29;;;;;;;;;;;;;;;18.12;56.95;99500.78;2026686;29;19928;-58
2023/03/24 03:18:33;;;;;;;;;;;;;;;18.11;56.76;99491.03;2027364;29;19927;-57
2023/03/24 03:19:39;;;;;;;;;;;;;;;18.12;56.95;99498.06;2039439;29;19933;-58
2023/03/24 03:20:49;;;;;;;;;;;;;;;18.12;56.95;99509.00;2039247;29;19930;-59
2023/03/24 03:21:52;;;;;;;;;;;;;;;18.11;57.07;99501.97;2040081;29;19927;-58
2023/03/24 03:22:59;;;;;;;;;;;;;;;18.12;56.92;99514.44;2025947;29;19927;-58
2023/03/24 03:24:04;;;;;;;;;;;;;;;18.12;57.05;99513.66;2027190;29;19971;-58
2023/03/24 03:25:08;;;;;;;;;;;;;;;18.12;57.06;99519.91;2035092;29;20439;-58
2023/03/24 03:26:12;;;;;;;;;;;;;;;18.12;56.85;99519.13;2039559;29;20538;-58
2023/03/24 03:27:19;;;;;;;;;;;;;;;18.12;56.94;99519.13;2038019;29;19973;-58
2023/03/24 03:28:24;;;;;;;;;;;;;;;18.11;56.88;99514.88;2036942;29;19930;-58
2023/03/24 03:29:29;;;;;;;;;;;;;;;18.11;57.09;99523.81;2039638;29;19927;-58
2023/03/24 03:30:37;;;;;;;;;;;;;;;18.10;56.97;99519.56;2029437;29;20021;-58
2023/03/24 03:31:42;;;;;;;;;;;;;;;18.10;56.89;99533.22;2025523;29;19931;-58
2023/03/24 03:32:53;;;;;;;;;;;;;;;18.11;56.94;99534.00;2030971;29;19934;-58
2023/03/24 03:34:01;;;;;;;;;;;;;;;18.10;56.82;99530.47;2031692;29;19933;-58
2023/03/24 03:35:06;;;;;;;;;;;;;;;18.11;56.90;99544.91;2025973;29;19927;-58
2023/03/24 03:36:11;;;;;;;;;;;;;;;18.10;57.12;99543.38;2025206;29;19928;-58
2023/03/24 03:37:21;;;;;;;;;;;;;;;18.10;56.95;99544.16;2034648;29;20382;-58
2023/03/24 03:38:26;;;;;;;;;;;;;;;18.09;57.14;99534.41;2035082;29;19956;-58
2023/03/24 03:39:30;;;;;;;;;;;;;;;18.10;56.92;99544.16;2038370;29;20014;-58
2023/03/24 03:40:36;;;;;;;;;;;;;;;18.10;56.92;99549.59;2039384;29;20475;-58
2023/03/24 03:41:47;;;;;;;;;;;;;;;18.09;56.83;99542.63;2038211;29;20404;-58
2023/03/24 03:42:51;;;;;;;;;;;;;;;18.10;57.22;99554.28;2023176;29;19934;-58
2023/03/24 03:43:53;;;;;;;;;;;;;;;18.09;57.10;99564.47;2028928;29;19927;-57
2023/03/24 03:44:55;;;;;;;;;;;;;;;18.09;57.09;99553.53;2032819;29;19927;-58
2023/03/24 03:45:59;;;;;;;;;;;;;;;18.10;56.85;99562.47;2024213;29;20420;-58
2023/03/24 03:47:06;;;;;;;;;;;;;;;18.09;57.08;99564.47;2024797;29;19927;-58
2023/03/24 03:48:18;;;;;;;;;;;;;;;18.09;57.04;99559.00;2029900;29;19933;-58
2023/03/24 03:49:20;;;;;;;;;;;;;;;18.09;57.25;99561.72;2033194;29;20407;-58
2023/03/24 03:50:23;;;;;;;;;;;;;;;18.08;57.15;99576.56;2030827;29;19974;-56
2023/03/24 03:51:25;;;;;;;;;;;;;;;18.08;56.88;99568.38;2018156;29;19927;-58
2023/03/24 03:52:30;;;;;;;;;;;;;;;18.08;57.27;99565.63;2016372;29;19927;-58
2023/03/24 03:53:35;;;;;;;;;;;;;;;18.08;56.89;99573.84;2031455;29;20022;-56
2023/03/24 03:54:40;;;;;;;;;;;;;;;18.08;57.16;99573.84;2036523;29;20021;-58
2023/03/24 03:55:42;;;;;;;;;;;;;;;18.08;56.95;99571.09;2038046;29;20435;-57
2023/03/24 03:56:45;;;;;;;;;;;;;;;18.07;56.98;99566.84;2030904;29;19983;-58
2023/03/24 03:57:55;;;;;;;;;;;;;;;18.06;57.14;99570.75;2022655;29;19983;-58
2023/03/24 03:59:06;;;;;;;;;;;;;;;18.08;56.95;99568.38;2024314;29;19927;-58
2023/03/24 04:00:14;;;;;;;;;;;;;;;18.07;56.86;99579.72;2031546;29;19975;-58
2023/03/24 04:01:28;;;;;;;;;;;;;;;18.07;57.03;99566.84;2030488;29;19931;-56
2023/03/24 04:03:00;;;;;;;;;;;;;;;18.07;56.91;99579.72;2025419;29;20018;-58
2023/03/24 04:04:18;;;;;;;;;;;;;;;18.07;57.07;99585.97;2020031;29;19935;-57
2023/03/24 04:05:46;;;;;;;;;;;;;;;18.07;57.12;99580.50;2031076;29;19954;-57
2023/03/24 04:06:58;;;;;;;;;;;;;;;18.06;57.17;99595.31;2031653;29;19923;-58
2023/03/24 04:08:07;;;;;;;;;;;;;;;18.06;56.88;99581.66;2038020;29;20009;-58
2023/03/24 04:09:35;;;;;;;;;;;;;;;18.05;56.91;99607.44;2039303;29;19970;-56
2023/03/24 04:10:53;;;;;;;;;;;;;;;18.06;57.02;99602.78;2030305;29;20447;-58
2023/03/24 04:12:07;;;;;;;;;;;;;;;18.06;56.95;99597.31;2027573;29;19963;-58
2023/03/24 04:13:23;;;;;;;;;;;;;;;18.05;56.92;99607.44;2034632;29;19942;-57
2023/03/24 04:15:02;;;;;;;;;;;;;;;18.05;57.19;99612.91;2034719;29;19923;-57
2023/03/24 04:16:44;;;;;;;;;;;;;;;18.05;56.91;99615.66;2038242;29;19934;-58
2023/03/24 04:18:05;;;;;;;;;;;;;;;18.05;56.83;99623.84;2022698;29;20534;-58
2023/03/24 04:19:42;;;;;;;;;;;;;;;18.04;56.81;99627.78;2026912;29;19930;-57
2023/03/24 04:20:45;;;;;;;;;;;;;;;18.05;56.91;99623.84;2026336;29;20005;-58
2023/03/24 04:21:57;;;;;;;;;;;;;;;18.04;56.95;99625.03;2031077;29;19927;-57
2023/03/24 04:23:03;;;;;;;;;;;;;;;18.05;57.04;99628.53;2030873;29;20377;-58
2023/03/24 04:24:15;;;;;;;;;;;;;;;18.04;56.72;99638.69;2031397;29;19933;-57
2023/03/24 04:25:26;;;;;;;;;;;;;;;18.04;56.95;99652.34;2036714;29;20340;-58
2023/03/24 04:26:33;;;;;;;;;;;;;;;18.04;57.06;99644.16;2034051;29;19927;-56
2023/03/24 04:27:38;;;;;;;;;;;;;;;18.04;56.94;99652.34;2034951;29;19985;-57
2023/03/24 04:28:48;;;;;;;;;;;;;;;18.04;56.93;99657.81;2037909;29;19978;-55
2023/03/24 04:29:55;;;;;;;;;;;;;;;18.04;56.93;99652.34;2028655;29;19931;-55
2023/03/24 04:31:03;;;;;;;;;;;;;;;18.04;56.92;99651.56;2024225;29;19924;-56
2023/03/24 04:32:10;;;;;;;;;;;;;;;18.03;56.88;99648.06;2028687;29;19927;-56
2023/03/24 04:33:16;;;;;;;;;;;;;;;18.03;56.94;99645.34;2035595;29;20019;-56
2023/03/24 04:34:24;;;;;;;;;;;;;;;18.03;56.86;99648.06;2032720;29;19982;-56
2023/03/24 04:35:32;;;;;;;;;;;;;;;18.03;57.06;99648.06;2032907;29;19959;-56
2023/03/24 04:36:56;;;;;;;;;;;;;;;18.02;56.94;99652.00;2036749;29;20392;-55
2023/03/24 04:38:05;;;;;;;;;;;;;;;18.03;56.96;99664.44;2039111;29;19949;-56
2023/03/24 04:39:11;;;;;;;;;;;;;;;18.03;57.02;99663.69;2033714;29;19938;-55
2023/03/24 04:40:21;;;;;;;;;;;;;;;18.02;57.02;99662.16;2029290;29;20010;-56
2023/03/24 04:41:26;;;;;;;;;;;;;;;18.02;56.87;99657.47;2029086;29;20014;-55
2023/03/24 04:42:41;;;;;;;;;;;;;;;18.02;56.94;99670.34;2040319;29;19937;-56
2023/03/24 04:43:46;;;;;;;;;;;;;;;18.03;56.93;99664.44;2038643;29;19977;-55
2023/03/24 04:44:50;;;;;;;;;;;;;;;18.02;56.91;99673.06;2027875;29;19930;-56
2023/03/24 04:46:16;;;;;;;;;;;;;;;18.01;56.88;99674.25;2028012;29;20427;-55
2023/03/24 04:47:30;;;;;;;;;;;;;;;18.02;57.07;99678.53;2026810;29;19934;-56
2023/03/24 04:48:53;;;;;;;;;;;;;;;18.00;56.87;99687.13;2028786;29;19927;-56
2023/03/24 04:50:03;;;;;;;;;;;;;;;18.01;57.13;99685.97;2038271;29;20043;-57
2023/03/24 04:51:09;;;;;;;;;;;;;;;18.02;56.92;99678.53;2034320;29;20054;-56
2023/03/24 04:52:37;;;;;;;;;;;;;;;17.99;57.02;99679.38;2037937;29;19922;-54
2023/03/24 04:53:40;;;;;;;;;;;;;;;18.01;57.10;99693.38;2034712;29;19926;-54
2023/03/24 04:54:41;;;;;;;;;;;;;;;18.01;56.80;99688.69;2036391;29;20352;-56
2023/03/24 04:55:50;;;;;;;;;;;;;;;17.99;57.07;99679.38;2025134;29;19934;-56
2023/03/24 04:57:04;;;;;;;;;;;;;;;18.01;57.09;99690.66;2025541;29;19974;-55
2023/03/24 04:58:11;;;;;;;;;;;;;;;18.01;56.99;99687.94;2031637;29;20009;-55
2023/03/24 04:59:17;;;;;;;;;;;;;;;18.01;56.86;99687.94;2035778;29;19931;-56
2023/03/24 05:00:19;;;;;;;;;;;;;;;17.99;57.02;99688.34;2037212;29;19934;-56
2023/03/24 05:01:29;;;;;;;;;;;;;;;18.01;56.85;99693.38;2030138;29;20010;-57
2023/03/24 05:02:54;;;;;;;;;;;;;;;18.00;56.90;99684.41;2033067;29;19927;-57
2023/03/24 05:03:59;;;;;;;;;;;;;;;17.99;57.21;99682.88;2025450;29;19927;-57
2023/03/24 05:05:03;;;;;;;;;;;;;;;17.99;56.91;99679.38;2025134;29;19928;-57
2023/03/24 05:06:10;;;;;;;;;;;;;;;17.98;56.92;99681.34;2030699;29;19938;-57
2023/03/24 05:07:14;;;;;;;;;;;;;;;17.98;56.88;99675.88;2035129;29;19927;-57
2023/03/24 05:08:17;;;;;;;;;;;;;;;17.99;57.27;99684.84;2029453;29;19927;-57
2023/03/24 05:09:21;;;;;;;;;;;;;;;17.99;57.05;99674.69;2027678;29;19958;-57
2023/03/24 05:10:23;;;;;;;;;;;;;;;17.98;56.88;99683.31;2032687;29;20026;-57
2023/03/24 05:11:29;;;;;;;;;;;;;;;17.98;56.83;99689.53;2046939;29;19922;-57
2023/03/24 05:12:37;;;;;;;;;;;;;;;17.98;57.03;99689.53;2024856;29;19933;-57
2023/03/24 05:13:58;;;;;;;;;;;;;;;17.98;57.10;99700.47;2030674;29;19958;-57
2023/03/24 05:15:03;;;;;;;;;;;;;;;17.97;56.83;99709.81;2027408;29;19927;-57
2023/03/24 05:16:07;;;;;;;;;;;;;;;17.97;57.08;99701.63;2028557;29;19927;-57
2023/03/24 05:17:15;;;;;;;;;;;;;;;17.98;57.01;99710.59;2034229;29;19927;-57
2023/03/24 05:18:17;;;;;;;;;;;;;;;17.97;57.07;99712.56;2040874;29;20442;-57
2023/03/24 05:19:19;;;;;;;;;;;;;;;17.98;57.07;99710.59;2040679;29;20336;-56
2023/03/24 05:20:22;;;;;;;;;;;;;;;17.97;57.02;99709.81;2027443;29;19927;-57
2023/03/24 05:21:26;;;;;;;;;;;;;;;17.98;57.08;99707.88;2029738;29;19983;-57
2023/03/24 05:22:27;;;;;;;;;;;;;;;17.97;56.82;99707.09;2040953;29;19926;-57
2023/03/24 05:23:30;;;;;;;;;;;;;;;17.97;57.11;99714.50;2029932;29;19962;-57
2023/03/24 05:24:33;;;;;;;;;;;;;;;17.97;57.04;99723.50;2033289;29;20389;-56
2023/03/24 05:25:36;;;;;;;;;;;;;;;17.98;56.92;99716.06;2036238;29;19973;-57
2023/03/24 05:26:38;;;;;;;;;;;;;;;17.96;56.83;99724.69;2031286;29;19934;-57
2023/03/24 05:27:46;;;;;;;;;;;;;;;17.96;57.01;99716.50;2032274;29;19927;-57
2023/03/24 05:28:59;;;;;;;;;;;;;;;17.97;57.08;99715.28;2031511;29;19979;-58
2023/03/24 05:30:05;;;;;;;;;;;;;;;17.96;56.81;99719.22;2034444;29;19966;-57
2023/03/24 05:31:08;;;;;;;;;;;;;;;17.96;56.89;99716.50;2033509;29;19934;-57
2023/03/24 05:32:24;;;;;;;;;;;;;;;17.97;56.72;99719.97;2034009;29;19934;-57
2023/03/24 05:33:25;;;;;;;;;;;;;;;17.96;56.87;99716.50;2037139;29;19934;-57
2023/03/24 05:34:28;;;;;;;;;;;;;;;17.97;57.01;99719.97;2030779;29;19970;-57
2023/03/24 05:35:40;;;;;;;;;;;;;;;17.97;57.09;99728.16;2031491;29;20313;-57
2023/03/24 05:36:43;;;;;;;;;;;;;;;17.96;57.05;99735.59;2039372;29;20033;-57
2023/03/24 05:37:47;;;;;;;;;;;;;;;17.96;57.13;99746.53;2031758;29;19974;-57
2023/03/24 05:38:49;;;;;;;;;;;;;;;17.96;56.91;99732.88;2027660;29;19923;-57
2023/03/24 05:39:51;;;;;;;;;;;;;;;17.96;56.88;99726.63;2038360;29;19978;-56
2023/03/24 05:41:17;;;;;;;;;;;;;;;17.96;57.04;99729.38;2027279;29;19982;-57
2023/03/24 05:42:19;;;;;;;;;;;;;;;17.96;57.09;99734.81;2039537;29;19930;-57
2023/03/24 05:43:23;;;;;;;;;;;;;;;17.96;57.05;99735.59;2033972;29;20484;-57
2023/03/24 05:44:34;;;;;;;;;;;;;;;17.96;57.08;99735.59;2031682;29;19994;-57
2023/03/24 05:45:46;;;;;;;;;;;;;;;17.95;56.86;99734.03;2027641;29;20369;-57
2023/03/24 05:46:58;;;;;;;;;;;;;;;17.96;57.10;99734.81;2018887;29;19924;-57
2023/03/24 05:48:01;;;;;;;;;;;;;;;17.96;57.10;99734.81;2022222;29;19928;-57
2023/03/24 05:49:21;;;;;;;;;;;;;;;17.95;56.99;99736.78;2030205;29;20725;-57
2023/03/24 05:50:23;;;;;;;;;;;;;;;17.95;56.85;99739.50;2038840;29;20430;-56
2023/03/24 05:51:25;;;;;;;;;;;;;;;17.95;56.99;99734.03;2035676;29;20035;-57